Terminal Aerodrome Forecast
Issued by NWS Dodge City, KS

Home | Current Version | Previous Version | Text Only | Print | Product List | Glossary Off
Versions: 1 2 3 4 5 6 7 8 9 10 11 12 13

000
FTUS43 KDDC 241720
TAFDDC
TAF
KDDC 241720Z 2418/2518 12007KT P6SM BKN150
     FM250400 07009KT P6SM VCTS BKN070CB
     FM251200 05008KT P6SM BKN130=

USA.gov is the U.S. government's official web portal to all federal, state and local government web resources and services.